Lardo, Idaho
Current Conditions -  °F | °C
As of 1:20 AM on Thursday 27 Nov 2014 (Local Time) from KMYL Reporting Station
Haze Haze  
Wind Chill: 31°   Ceiling: 200
Heat Index: 31°   Visibility: 1mi
Dew Point: 30°   Wind: 0mph
Humidity: 96%   Direction: NA
Pressure: 30.17"   Gusts: NA
Location:  44.8627°N, 115.492°W
Report Text: KMYL 270820Z AUTO 00000KT 1SM BR VV002 M01/M01 A3017 RMK AO2 T10061011
Loading
Personal Weather Stations






























Interactive Weather Map New forecast layout! Learn more

10-Day Weather Forecast

Advertisements
Track Severe Weather on mobile